createdAt,value
2018-11-04T00:00:47.828Z,20.93
2018-11-04T00:03:16.673Z,20.60
2018-11-04T00:05:45.894Z,20.87
2018-11-04T00:08:14.800Z,20.70
2018-11-04T00:10:43.627Z,20.30
2018-11-04T00:13:12.869Z,21.90
2018-11-04T00:15:41.871Z,21.10
2018-11-04T00:18:11.071Z,20.10
2018-11-04T00:20:40.176Z,21.50
2018-11-04T00:23:09.067Z,20.97
2018-11-04T00:25:38.281Z,22.23
2018-11-04T00:28:07.089Z,21.10
2018-11-04T00:30:35.965Z,21.83
2018-11-04T00:33:04.754Z,21.23
2018-11-04T00:35:33.528Z,22.57
2018-11-04T00:38:02.355Z,22.60
2018-11-04T00:40:31.266Z,21.90
2018-11-04T00:43:00.106Z,23.27
2018-11-04T00:45:29.042Z,22.33
2018-11-04T00:47:58.046Z,24.50
2018-11-04T00:50:26.807Z,21.80
2018-11-04T00:52:55.706Z,22.63
2018-11-04T00:55:24.539Z,23.30
2018-11-04T00:57:53.408Z,22.73
2018-11-04T01:00:22.214Z,22.77
2018-11-04T01:02:58.205Z,21.63
2018-11-04T01:05:27.072Z,24.80
2018-11-04T01:07:55.992Z,23.77
2018-11-04T01:10:25.220Z,24.50
2018-11-04T01:12:54.065Z,24.13
2018-11-04T01:15:22.870Z,24.07
2018-11-04T01:17:51.944Z,24.30
2018-11-04T01:20:20.693Z,24.53
2018-11-04T01:22:49.824Z,23.50
2018-11-04T01:25:18.788Z,23.00
2018-11-04T01:27:47.578Z,24.13
2018-11-04T01:30:16.471Z,23.67
2018-11-04T01:32:45.619Z,22.53
2018-11-04T01:35:14.552Z,24.27
2018-11-04T01:37:43.246Z,27.10
2018-11-04T01:40:12.079Z,24.47
2018-11-04T01:42:40.847Z,24.47
2018-11-04T01:45:11.441Z,23.40
2018-11-04T01:47:40.589Z,24.30
2018-11-04T01:50:12.745Z,25.30
2018-11-04T01:52:41.507Z,23.93
2018-11-04T01:55:11.216Z,25.03
2018-11-04T01:57:40.292Z,23.47
2018-11-04T02:00:16.479Z,25.07
2018-11-04T02:02:45.975Z,25.50
2018-11-04T02:05:15.234Z,24.13
2018-11-04T02:07:44.436Z,25.20
2018-11-04T02:10:14.478Z,25.07
2018-11-04T02:12:43.559Z,26.07
2018-11-04T02:15:13.377Z,25.47
2018-11-04T02:17:42.162Z,24.10
2018-11-04T02:20:12.292Z,24.90
2018-11-04T02:22:41.718Z,23.57
2018-11-04T02:25:11.768Z,24.80
2018-11-04T02:27:40.754Z,26.00
2018-11-04T02:30:12.262Z,25.50
2018-11-04T02:32:41.537Z,26.50
2018-11-04T02:35:10.424Z,26.23
2018-11-04T02:37:39.696Z,26.60
2018-11-04T02:40:08.597Z,26.13
2018-11-04T02:42:37.732Z,25.10
2018-11-04T02:45:07.391Z,25.70
2018-11-04T02:47:36.552Z,26.77
2018-11-04T02:50:05.681Z,26.87
2018-11-04T02:52:34.616Z,25.20
2018-11-04T02:55:03.458Z,26.97
2018-11-04T02:57:32.248Z,27.03
2018-11-04T03:00:01.119Z,25.70
2018-11-04T03:02:29.887Z,26.13
2018-11-04T03:04:58.983Z,26.27
2018-11-04T03:07:27.720Z,25.33
2018-11-04T03:09:56.499Z,27.40
2018-11-04T03:12:25.740Z,26.97
2018-11-04T03:14:54.588Z,27.73
2018-11-04T03:17:23.401Z,26.17
2018-11-04T03:19:52.211Z,27.10
2018-11-04T03:22:20.975Z,27.00
2018-11-04T03:24:49.930Z,26.77
2018-11-04T03:27:18.631Z,26.30
2018-11-04T03:29:47.484Z,26.13
2018-11-04T03:32:17.674Z,26.70
2018-11-04T03:34:46.535Z,25.33
2018-11-04T03:37:15.378Z,27.70
2018-11-04T03:39:44.193Z,27.23
2018-11-04T03:42:12.999Z,27.40
2018-11-04T03:44:41.852Z,27.80
2018-11-04T03:47:10.680Z,26.10
2018-11-04T03:49:39.547Z,28.47
2018-11-04T03:52:08.622Z,28.10
2018-11-04T03:54:37.559Z,28.10
2018-11-04T03:57:06.688Z,28.17
2018-11-04T03:59:35.480Z,28.20
2018-11-04T04:02:04.383Z,28.23
2018-11-04T04:04:33.244Z,26.53
2018-11-04T04:07:02.636Z,27.70
2018-11-04T04:09:31.402Z,28.60
2018-11-04T04:12:00.194Z,29.07
2018-11-04T04:14:29.238Z,28.50
2018-11-04T04:16:58.135Z,29.40
2018-11-04T04:19:27.007Z,28.97
2018-11-04T04:21:56.098Z,28.57
2018-11-04T04:24:25.018Z,29.33
2018-11-04T04:26:53.755Z,27.77
2018-11-04T04:29:22.615Z,28.57
2018-11-04T04:31:51.377Z,28.67
2018-11-04T04:34:20.198Z,28.83
2018-11-04T04:36:49.214Z,28.93
2018-11-04T04:39:18.119Z,29.53
2018-11-04T04:41:47.274Z,28.63
2018-11-04T04:44:16.449Z,31.17
2018-11-04T04:46:45.512Z,29.30
2018-11-04T04:49:14.809Z,31.27
2018-11-04T04:51:43.617Z,28.77
2018-11-04T04:54:12.790Z,30.83
2018-11-04T04:56:41.638Z,30.50
2018-11-04T04:59:10.590Z,30.20
2018-11-04T05:01:39.576Z,31.07
2018-11-04T05:04:08.374Z,31.70
2018-11-04T05:06:37.446Z,31.00
2018-11-04T05:09:07.402Z,30.27
2018-11-04T05:11:36.680Z,30.87
2018-11-04T05:14:05.509Z,29.03
2018-11-04T05:16:34.628Z,30.67
2018-11-04T05:19:03.313Z,29.90
2018-11-04T05:21:32.437Z,31.20
2018-11-04T05:24:01.202Z,31.23
2018-11-04T05:26:30.048Z,30.63
2018-11-04T05:28:58.842Z,29.50
2018-11-04T05:31:27.673Z,30.77
2018-11-04T05:33:56.495Z,31.23
2018-11-04T05:36:25.280Z,33.00
2018-11-04T05:38:54.051Z,31.20
2018-11-04T05:41:22.904Z,32.87
2018-11-04T05:43:51.763Z,32.33
2018-11-04T05:46:20.535Z,31.37
2018-11-04T05:48:49.335Z,33.03
2018-11-04T05:51:18.166Z,33.00
2018-11-04T05:53:46.964Z,32.37
2018-11-04T05:56:16.100Z,32.50
2018-11-04T05:58:45.026Z,33.77
2018-11-04T06:01:13.853Z,31.93
2018-11-04T06:03:42.785Z,32.33
2018-11-04T06:06:12.440Z,31.90
2018-11-04T06:08:41.251Z,33.10
2018-11-04T06:11:10.379Z,32.00
2018-11-04T06:13:39.159Z,34.70
2018-11-04T06:16:08.333Z,33.50
2018-11-04T06:18:37.145Z,33.47
2018-11-04T06:21:06.380Z,33.93
2018-11-04T06:23:35.243Z,34.40
2018-11-04T06:26:04.121Z,32.87
2018-11-04T06:28:32.974Z,34.53
2018-11-04T06:31:01.807Z,33.80
2018-11-04T06:33:30.622Z,34.20
2018-11-04T06:35:59.463Z,34.20
2018-11-04T06:38:28.251Z,34.60
2018-11-04T06:40:57.286Z,35.23
2018-11-04T06:43:26.373Z,34.80
2018-11-04T06:45:55.579Z,35.20
2018-11-04T06:48:24.746Z,35.10
2018-11-04T06:50:53.813Z,34.67
2018-11-04T06:53:22.737Z,34.30
2018-11-04T06:55:51.524Z,36.57
2018-11-04T06:58:20.389Z,34.43
2018-11-04T07:00:49.563Z,33.90
2018-11-04T07:03:18.882Z,34.60
2018-11-04T07:05:51.051Z,35.70
2018-11-04T07:08:20.083Z,34.40
2018-11-04T07:10:49.207Z,36.70
2018-11-04T07:13:18.022Z,37.90
2018-11-04T07:15:46.846Z,35.83
2018-11-04T07:18:15.684Z,35.53
2018-11-04T07:20:44.468Z,36.00
2018-11-04T07:23:13.255Z,36.20
2018-11-04T07:25:42.075Z,37.00
2018-11-04T07:28:11.290Z,36.57
2018-11-04T07:30:40.080Z,34.57
2018-11-04T07:33:08.923Z,35.03
2018-11-04T07:35:37.860Z,35.40
2018-11-04T07:38:06.649Z,34.57
2018-11-04T07:40:35.661Z,35.47
2018-11-04T07:43:04.586Z,35.33
2018-11-04T07:45:33.754Z,36.73
2018-11-04T07:48:02.704Z,37.10
2018-11-04T07:50:31.537Z,35.47
2018-11-04T07:53:00.367Z,36.00
2018-11-04T07:55:29.176Z,38.40
2018-11-04T07:57:58.281Z,38.20
2018-11-04T08:00:27.382Z,37.80
2018-11-04T08:02:56.388Z,35.03
2018-11-04T08:05:25.665Z,37.53
2018-11-04T08:07:54.571Z,37.83
2018-11-04T08:10:23.382Z,38.40
2018-11-04T08:12:52.173Z,38.30
2018-11-04T08:15:21.331Z,36.47
2018-11-04T08:17:50.186Z,36.70
2018-11-04T08:20:19.021Z,37.83
2018-11-04T08:22:47.951Z,38.87
2018-11-04T08:25:16.869Z,36.80
2018-11-04T08:27:45.981Z,39.83
2018-11-04T08:30:14.900Z,38.30
2018-11-04T08:32:43.943Z,38.03
2018-11-04T08:35:12.877Z,40.40
2018-11-04T08:37:41.814Z,38.83
2018-11-04T08:40:10.807Z,40.37
2018-11-04T08:42:39.493Z,40.53
2018-11-04T08:45:08.851Z,39.33
2018-11-04T08:47:37.620Z,39.87
2018-11-04T08:50:08.311Z,42.37
2018-11-04T08:52:37.253Z,40.67
2018-11-04T08:55:07.105Z,41.73
2018-11-04T08:57:35.974Z,44.43
2018-11-04T09:00:05.605Z,44.07
2018-11-04T09:02:34.570Z,44.40
2018-11-04T09:05:03.430Z,43.60
2018-11-04T09:07:32.296Z,43.20
2018-11-04T09:10:01.274Z,42.37
2018-11-04T09:12:30.251Z,43.73
2018-11-04T09:14:59.346Z,42.10
2018-11-04T09:17:28.286Z,42.50
2018-11-04T09:19:57.089Z,43.90
2018-11-04T09:22:26.091Z,46.37
2018-11-04T09:24:54.855Z,42.70
2018-11-04T09:27:23.853Z,42.43
2018-11-04T09:29:52.802Z,45.80
2018-11-04T09:32:21.878Z,43.97
2018-11-04T09:34:50.911Z,42.30
2018-11-04T09:37:19.845Z,44.27
2018-11-04T09:39:48.797Z,44.73
2018-11-04T09:42:18.189Z,47.33
2018-11-04T09:44:47.057Z,45.77
2018-11-04T09:47:15.921Z,44.10
2018-11-04T09:49:44.802Z,44.57
2018-11-04T09:52:13.700Z,43.60
2018-11-04T09:54:43.249Z,43.37
2018-11-04T09:57:12.154Z,45.33
2018-11-04T09:59:40.933Z,45.03
2018-11-04T10:02:09.783Z,45.77
2018-11-04T10:04:38.965Z,43.40
2018-11-04T10:07:08.344Z,44.20
2018-11-04T10:09:37.047Z,45.40
2018-11-04T10:12:05.921Z,44.37
2018-11-04T10:14:34.762Z,45.83
2018-11-04T10:17:03.685Z,46.00
2018-11-04T10:19:32.900Z,43.77
2018-11-04T10:22:01.983Z,42.80
2018-11-04T10:24:30.809Z,44.00
2018-11-04T10:26:59.987Z,44.67
2018-11-04T10:29:28.855Z,43.93
2018-11-04T10:31:57.622Z,44.43
2018-11-04T10:34:26.491Z,43.97
2018-11-04T10:36:55.414Z,44.70
2018-11-04T10:39:24.414Z,43.20
2018-11-04T10:41:53.671Z,44.53
2018-11-04T10:44:22.535Z,43.80
2018-11-04T10:46:51.632Z,44.60
2018-11-04T10:49:20.581Z,42.57
2018-11-04T10:51:49.350Z,44.33
2018-11-04T10:54:18.350Z,43.97
2018-11-04T10:56:47.218Z,42.87
2018-11-04T10:59:16.140Z,42.00
2018-11-04T11:01:45.059Z,53.60
2018-11-04T11:04:13.980Z,47.50
2018-11-04T11:06:42.956Z,46.00
2018-11-04T11:09:12.071Z,46.13
2018-11-04T11:11:41.502Z,44.50
2018-11-04T11:14:10.327Z,45.40
2018-11-04T11:16:39.327Z,43.77
2018-11-04T11:19:08.261Z,45.47
2018-11-04T11:21:37.462Z,46.17
2018-11-04T11:24:06.412Z,44.87
2018-11-04T11:26:35.298Z,46.60
2018-11-04T11:29:04.197Z,43.10
2018-11-04T11:31:33.134Z,44.70
2018-11-04T11:34:02.411Z,44.40
2018-11-04T11:36:31.285Z,44.30
2018-11-04T11:39:00.215Z,46.00
2018-11-04T11:41:29.261Z,55.17
2018-11-04T11:43:58.316Z,50.00
2018-11-04T11:46:27.514Z,44.83
2018-11-04T11:48:57.247Z,46.00
2018-11-04T11:51:26.237Z,46.77
2018-11-04T11:53:55.596Z,46.63
2018-11-04T11:56:24.440Z,46.77
2018-11-04T11:58:53.801Z,44.37
2018-11-04T12:01:22.775Z,44.30
2018-11-04T12:03:51.784Z,45.70
2018-11-04T12:06:20.660Z,46.90
2018-11-04T12:08:49.548Z,44.53
2018-11-04T12:11:18.523Z,44.20
2018-11-04T12:13:47.610Z,45.70
2018-11-04T12:16:16.476Z,44.70
2018-11-04T12:18:45.270Z,48.17
2018-11-04T12:21:14.171Z,51.13
2018-11-04T12:23:43.393Z,47.83
2018-11-04T12:26:12.188Z,45.03
2018-11-04T12:28:41.049Z,45.20
2018-11-04T12:31:10.097Z,48.80
2018-11-04T12:33:39.064Z,48.03
2018-11-04T12:36:08.019Z,45.53
2018-11-04T12:38:37.032Z,48.03
2018-11-04T12:41:06.132Z,48.60
2018-11-04T12:43:35.093Z,49.67
2018-11-04T12:46:04.335Z,50.93
2018-11-04T12:48:33.504Z,50.53
2018-11-04T12:51:02.697Z,48.73
2018-11-04T12:53:31.759Z,47.97
2018-11-04T12:56:00.825Z,49.50
2018-11-04T12:58:29.713Z,49.47
2018-11-04T13:00:58.725Z,50.07
2018-11-04T13:03:27.985Z,47.90
2018-11-04T13:05:56.928Z,46.97
2018-11-04T13:08:25.948Z,46.93
2018-11-04T13:10:54.878Z,48.23
2018-11-04T13:13:24.666Z,52.47
2018-11-04T13:15:53.608Z,48.00
2018-11-04T13:18:22.505Z,52.37
2018-11-04T13:20:51.808Z,50.27
2018-11-04T13:23:20.771Z,48.53
2018-11-04T13:25:49.738Z,51.00
2018-11-04T13:28:18.927Z,47.40
2018-11-04T13:30:48.033Z,49.43
2018-11-04T13:33:17.122Z,47.40
2018-11-04T13:35:46.180Z,47.80
2018-11-04T13:38:14.993Z,48.70
2018-11-04T13:40:44.085Z,48.20
2018-11-04T13:43:13.338Z,50.07
2018-11-04T13:45:42.944Z,49.00
2018-11-04T13:48:12.232Z,48.77
2018-11-04T13:50:41.138Z,47.63
2018-11-04T13:53:10.229Z,48.67
2018-11-04T13:55:39.284Z,51.53
2018-11-04T13:58:08.203Z,51.57
2018-11-04T14:00:37.414Z,49.63
2018-11-04T14:03:06.554Z,49.63
2018-11-04T14:05:35.429Z,50.07
2018-11-04T14:08:04.397Z,50.33
2018-11-04T14:10:33.298Z,47.17
2018-11-04T14:13:03.210Z,49.30
2018-11-04T14:15:32.281Z,51.87
2018-11-04T14:18:01.344Z,48.47
2018-11-04T14:20:30.980Z,48.60
2018-11-04T14:22:59.877Z,51.03
2018-11-04T14:25:28.818Z,46.40
2018-11-04T14:27:57.726Z,49.70
2018-11-04T14:30:26.963Z,49.00
2018-11-04T14:32:55.813Z,51.70
2018-11-04T14:35:24.685Z,48.37
2018-11-04T14:37:53.601Z,48.83
2018-11-04T14:40:22.468Z,47.60
2018-11-04T14:42:51.865Z,50.37
2018-11-04T14:45:20.784Z,50.10
2018-11-04T14:47:49.593Z,49.63
2018-11-04T14:50:19.857Z,49.50
2018-11-04T14:52:49.237Z,52.43
2018-11-04T14:55:18.132Z,48.87
2018-11-04T14:57:47.492Z,48.93
2018-11-04T15:00:17.222Z,52.53
2018-11-04T15:02:46.307Z,52.90
2018-11-04T15:05:15.170Z,50.80
2018-11-04T15:07:44.016Z,52.00
2018-11-04T15:10:13.935Z,45.57
2018-11-04T15:12:42.850Z,50.40
2018-11-04T15:15:15.052Z,49.40
2018-11-04T15:17:43.945Z,52.67
2018-11-04T15:20:13.797Z,49.20
2018-11-04T15:22:46.792Z,47.73
2018-11-04T15:25:16.913Z,49.03
2018-11-04T15:27:46.077Z,51.57
2018-11-04T15:30:15.075Z,47.60
2018-11-04T15:32:44.370Z,49.20
2018-11-04T15:35:15.085Z,49.67
2018-11-04T15:37:44.368Z,50.40
2018-11-04T15:40:14.564Z,49.77
2018-11-04T15:42:43.380Z,50.20
2018-11-04T15:45:13.646Z,49.50
2018-11-04T15:47:42.738Z,49.60
2018-11-04T15:50:15.084Z,51.10
2018-11-04T15:52:44.222Z,48.33
2018-11-04T15:55:13.264Z,48.23
2018-11-04T15:57:42.452Z,50.80
2018-11-04T16:00:12.888Z,48.43
2018-11-04T16:02:41.888Z,50.97
2018-11-04T16:05:17.460Z,51.13
2018-11-04T16:07:46.804Z,49.90
2018-11-04T16:10:16.558Z,50.40
2018-11-04T16:12:45.694Z,48.80
2018-11-04T16:15:15.544Z,50.57
2018-11-04T16:17:45.313Z,48.33
2018-11-04T16:20:15.362Z,51.17
2018-11-04T16:22:44.875Z,50.90
2018-11-04T16:25:14.423Z,52.10
2018-11-04T16:27:43.787Z,54.47
2018-11-04T16:30:14.096Z,52.17
2018-11-04T16:32:42.937Z,52.40
2018-11-04T16:35:13.027Z,52.50
2018-11-04T16:37:42.962Z,50.13
2018-11-04T16:40:12.264Z,51.40
2018-11-04T16:42:41.223Z,51.67
2018-11-04T16:45:12.721Z,62.60
2018-11-04T16:47:41.619Z,58.20
2018-11-04T16:50:11.628Z,53.70
2018-11-04T16:52:40.987Z,59.37
2018-11-04T16:55:10.913Z,52.37
2018-11-04T16:57:40.035Z,51.70
2018-11-04T17:00:10.157Z,71.83
2018-11-04T17:02:40.081Z,60.57
2018-11-04T17:05:10.490Z,54.33
2018-11-04T17:07:39.754Z,55.40
2018-11-04T17:10:09.683Z,53.50
2018-11-04T17:12:38.953Z,52.40
2018-11-04T17:15:10.080Z,53.53
2018-11-04T17:17:39.014Z,55.43
2018-11-04T17:20:10.800Z,53.60
2018-11-04T17:22:39.663Z,53.87
2018-11-04T17:25:08.970Z,53.77
2018-11-04T17:27:37.958Z,52.40
2018-11-04T17:30:10.591Z,53.27
2018-11-04T17:32:46.228Z,52.27
2018-11-04T17:35:16.065Z,50.57
2018-11-04T17:37:45.402Z,53.23
2018-11-04T17:40:15.256Z,50.30
2018-11-04T17:42:44.334Z,51.10
2018-11-04T17:45:14.641Z,54.93
2018-11-04T17:47:43.549Z,49.70
2018-11-04T17:50:16.757Z,49.53
2018-11-04T17:52:45.968Z,53.53
2018-11-04T17:55:15.460Z,55.20
2018-11-04T17:57:44.789Z,52.40
2018-11-04T18:00:14.902Z,53.30
2018-11-04T18:02:44.226Z,49.63
2018-11-04T18:05:13.782Z,50.30
2018-11-04T18:07:43.708Z,49.80
2018-11-04T18:10:13.668Z,51.00
2018-11-04T18:12:42.988Z,51.80
2018-11-04T18:15:12.724Z,47.50
2018-11-04T18:17:41.538Z,49.47
2018-11-04T18:20:11.808Z,49.57
2018-11-04T18:22:41.075Z,50.60
2018-11-04T18:25:10.902Z,46.50
2018-11-04T18:27:39.697Z,48.87
2018-11-04T18:30:10.660Z,46.30
2018-11-04T18:32:39.505Z,51.10
2018-11-04T18:35:11.594Z,49.30
2018-11-04T18:37:40.713Z,48.73
2018-11-04T18:40:11.803Z,48.80
2018-11-04T18:42:41.218Z,48.50
2018-11-04T18:45:11.230Z,47.87
2018-11-04T18:47:40.303Z,47.10
2018-11-04T18:50:10.418Z,48.27
2018-11-04T18:52:39.697Z,48.60
2018-11-04T18:55:09.953Z,47.57
2018-11-04T18:57:39.062Z,49.23
2018-11-04T19:00:10.397Z,44.57
2018-11-04T19:02:39.222Z,48.63
2018-11-04T19:05:09.113Z,45.77
2018-11-04T19:07:37.984Z,48.20
2018-11-04T19:10:08.762Z,47.70
2018-11-04T19:12:37.866Z,47.70
2018-11-04T19:15:07.649Z,47.53
2018-11-04T19:17:37.205Z,46.10
2018-11-04T19:20:07.764Z,46.20
2018-11-04T19:22:42.851Z,44.03
2018-11-04T19:25:13.260Z,44.27
2018-11-04T19:27:42.494Z,43.33
2018-11-04T19:30:13.975Z,42.97
2018-11-04T19:32:43.212Z,43.10
2018-11-04T19:35:12.800Z,45.70
2018-11-04T19:37:42.104Z,43.43
2018-11-04T19:40:12.969Z,42.00
2018-11-04T19:42:41.943Z,41.77
2018-11-04T19:45:10.822Z,41.37
2018-11-04T19:47:40.058Z,40.60
2018-11-04T19:50:11.271Z,38.87
2018-11-04T19:52:40.412Z,47.97
2018-11-04T19:55:09.931Z,44.00
2018-11-04T19:57:38.823Z,40.90
2018-11-04T20:00:10.109Z,41.17
2018-11-04T20:02:39.034Z,41.87
2018-11-04T20:05:09.553Z,40.50
2018-11-04T20:07:38.475Z,42.97
2018-11-04T20:10:13.821Z,41.00
2018-11-04T20:12:48.138Z,41.17
2018-11-04T20:15:17.528Z,39.47
2018-11-04T20:17:47.276Z,39.93
2018-11-04T20:20:18.026Z,39.87
2018-11-04T20:22:46.843Z,39.30
2018-11-04T20:25:20.906Z,40.03
2018-11-04T20:27:49.752Z,40.53
2018-11-04T20:30:18.829Z,39.10
2018-11-04T20:32:53.062Z,40.27
2018-11-04T20:35:21.898Z,39.73
2018-11-04T20:37:50.692Z,40.73
2018-11-04T20:40:25.024Z,41.97
2018-11-04T20:42:53.967Z,41.10
2018-11-04T20:45:22.795Z,38.93
2018-11-04T20:47:56.782Z,40.00
2018-11-04T20:50:30.909Z,40.50
2018-11-04T20:52:59.795Z,40.40
2018-11-04T20:55:33.920Z,38.33
2018-11-04T20:58:02.928Z,38.67
2018-11-04T21:00:32.054Z,39.30
2018-11-04T21:03:01.213Z,37.70
2018-11-04T21:05:30.014Z,39.07
2018-11-04T21:07:59.263Z,37.40
2018-11-04T21:10:28.089Z,38.50
2018-11-04T21:12:56.920Z,37.47
2018-11-04T21:15:25.824Z,37.27
2018-11-04T21:17:54.692Z,35.97
2018-11-04T21:20:23.684Z,36.40
2018-11-04T21:22:52.628Z,36.70
2018-11-04T21:25:21.835Z,36.87
2018-11-04T21:27:50.680Z,36.10
2018-11-04T21:30:19.905Z,36.27
2018-11-04T21:32:49.092Z,34.60
2018-11-04T21:35:18.080Z,35.50
2018-11-04T21:37:47.035Z,35.13
2018-11-04T21:40:15.873Z,37.10
2018-11-04T21:42:44.954Z,37.23
2018-11-04T21:45:15.147Z,39.77
2018-11-04T21:47:44.688Z,36.30
2018-11-04T21:50:13.525Z,36.37
2018-11-04T21:52:42.548Z,36.90
2018-11-04T21:55:12.760Z,36.40
2018-11-04T21:57:42.705Z,35.37
2018-11-04T22:00:13.888Z,37.23
2018-11-04T22:02:43.213Z,38.10
2018-11-04T22:05:12.672Z,36.60
2018-11-04T22:07:42.969Z,37.30
2018-11-04T22:10:14.981Z,35.53
2018-11-04T22:12:44.148Z,37.53
2018-11-04T22:15:13.290Z,40.40
2018-11-04T22:17:42.856Z,38.70
2018-11-04T22:20:12.972Z,43.30
2018-11-04T22:22:41.856Z,40.10
2018-11-04T22:25:11.583Z,39.53
2018-11-04T22:27:40.855Z,39.23
2018-11-04T22:30:11.384Z,42.40
2018-11-04T22:32:40.381Z,39.30
2018-11-04T22:35:10.871Z,37.00
2018-11-04T22:37:39.957Z,46.37
2018-11-04T22:40:10.394Z,40.10
2018-11-04T22:42:39.976Z,42.30
2018-11-04T22:45:10.775Z,40.80
2018-11-04T22:47:40.145Z,40.80
2018-11-04T22:50:11.053Z,41.23
2018-11-04T22:52:42.479Z,39.40
2018-11-04T22:55:12.454Z,39.67
2018-11-04T22:57:41.888Z,37.30
2018-11-04T23:00:17.095Z,37.73
2018-11-04T23:02:47.331Z,39.03
2018-11-04T23:05:21.639Z,39.43
2018-11-04T23:07:50.664Z,39.40
2018-11-04T23:10:19.939Z,40.73
2018-11-04T23:12:48.801Z,40.00
2018-11-04T23:15:17.606Z,41.00
2018-11-04T23:17:46.454Z,42.10
2018-11-04T23:20:15.365Z,40.73
2018-11-04T23:22:44.244Z,41.90
2018-11-04T23:25:14.667Z,42.97
2018-11-04T23:27:44.223Z,47.67
2018-11-04T23:30:18.523Z,43.03
2018-11-04T23:32:48.142Z,43.63
2018-11-04T23:35:16.941Z,41.60
2018-11-04T23:37:46.059Z,40.80
2018-11-04T23:40:14.987Z,43.70
2018-11-04T23:42:43.890Z,42.77
2018-11-04T23:45:13.983Z,42.00
2018-11-04T23:47:43.158Z,39.67
2018-11-04T23:50:14.206Z,41.27
2018-11-04T23:52:43.788Z,40.70
2018-11-04T23:55:13.430Z,40.83
2018-11-04T23:57:42.351Z,43.47
